Time;durP1;ratioP1;P1;durP2;ratioP2;P2;SDS_P1;SDS_P2;PMS_P1;PMS_P2;Temp;Humidity;BMP_temperature;BMP_pressure;BME280_temperature;BME280_humidity;BME280_pressure;Samples;Min_cycle;Max_cycle;Signal;HPM_P1;HPM_P2
2021/10/04 00:00:43;;;;;;;22.00;13.90;;;;;;;8.35;72.90;100806.70;116685;1201;23065;-57
2021/10/04 00:03:11;;;;;;;22.10;14.40;;;;;;;8.37;72.94;100807.52;116502;1200;138848;-58
2021/10/04 00:05:40;;;;;;;23.80;15.00;;;;;;;8.38;73.12;100803.79;116612;1201;22683;-58
2021/10/04 00:08:07;;;;;;;19.90;13.90;;;;;;;8.39;73.09;100791.71;116652;1200;22261;-59
2021/10/04 00:10:47;;;;;;;26.70;16.60;;;;;;;8.42;72.95;100785.52;116509;1201;138017;-59
2021/10/04 00:13:31;;;;;;;27.20;15.30;;;;;;;8.43;72.83;100786.16;116613;1201;22326;-58
2021/10/04 00:15:59;;;;;;;22.20;15.10;;;;;;;8.42;72.74;100788.79;116565;1201;137989;-58
2021/10/04 00:18:28;;;;;;;25.50;15.90;;;;;;;8.39;72.61;100788.66;116630;1201;22326;-58
2021/10/04 00:20:56;;;;;;;21.40;15.40;;;;;;;8.38;72.64;100783.81;116553;1201;139076;-59
2021/10/04 00:23:24;;;;;;;29.70;17.60;;;;;;;8.35;72.59;100783.48;116593;1201;22301;-59
2021/10/04 00:25:52;;;;;;;25.50;17.80;;;;;;;8.33;72.50;100778.34;116668;1201;23093;-59
2021/10/04 00:28:20;;;;;;;27.50;18.00;;;;;;;8.32;72.61;100774.63;116547;1200;138588;-59
2021/10/04 00:30:48;;;;;;;31.50;17.40;;;;;;;8.32;72.74;100768.69;116575;1201;23604;-59
2021/10/04 00:33:16;;;;;;;28.70;18.80;;;;;;;8.31;72.84;100768.08;116560;1200;139714;-58
2021/10/04 00:35:44;;;;;;;26.20;17.70;;;;;;;8.30;73.04;100764.77;116663;1201;22311;-59
2021/10/04 00:38:12;;;;;;;24.70;17.80;;;;;;;8.28;72.97;100759.50;116628;1200;23439;-59
2021/10/04 00:40:40;;;;;;;25.90;18.10;;;;;;;8.25;73.20;100757.17;113853;1201;139479;-58
2021/10/04 00:43:09;;;;;;;26.90;17.60;;;;;;;8.24;73.10;100758.92;112417;1193;25128;-58
2021/10/04 00:45:37;;;;;;;28.10;18.50;;;;;;;8.23;73.09;100763.02;116502;1193;138807;-58
2021/10/04 00:48:05;;;;;;;31.40;19.80;;;;;;;8.22;73.21;100760.91;116660;1200;22390;-58
2021/10/04 00:50:34;;;;;;;30.60;18.30;;;;;;;8.20;73.23;100762.46;116625;1200;24300;-58
2021/10/04 00:53:02;;;;;;;25.30;18.20;;;;;;;8.18;73.20;100763.25;116517;1201;138083;-59
2021/10/04 00:55:31;;;;;;;27.00;17.10;;;;;;;8.15;73.22;100767.02;116693;1201;22304;-58
2021/10/04 00:57:59;;;;;;;26.00;17.50;;;;;;;8.12;73.26;100768.84;116553;1201;137881;-58
2021/10/04 01:00:27;;;;;;;29.00;16.60;;;;;;;8.10;73.10;100773.81;116660;1201;22323;-58
2021/10/04 01:02:56;;;;;;;32.10;18.20;;;;;;;8.08;73.13;100780.04;116492;1201;139522;-58
2021/10/04 01:05:24;;;;;;;23.60;16.60;;;;;;;8.07;73.04;100782.98;116655;1201;22356;-59
2021/10/04 01:07:53;;;;;;;26.20;16.30;;;;;;;8.05;73.11;100784.29;116624;1201;23091;-58
2021/10/04 01:10:22;;;;;;;28.40;16.70;;;;;;;8.04;73.26;100772.21;116515;1201;137872;-58
2021/10/04 01:12:51;;;;;;;23.60;15.80;;;;;;;8.04;73.27;100772.34;116659;1200;22224;-58
2021/10/04 01:16:40;;;;;;;27.90;15.40;;;;;;;8.07;73.32;100771.29;110721;1216;546140;-58
2021/10/04 01:19:08;;;;;;;25.30;16.40;;;;;;;8.03;73.18;100773.92;111799;1198;22627;-58
2021/10/04 01:21:36;;;;;;;25.60;15.90;;;;;;;8.00;73.19;100778.09;115960;1198;138186;-59
2021/10/04 01:24:05;;;;;;;23.40;15.50;;;;;;;7.96;73.04;100776.84;116134;1198;23408;-59
2021/10/04 01:26:33;;;;;;;24.90;14.80;;;;;;;7.92;72.85;100776.02;116073;1205;22333;-58
2021/10/04 01:29:02;;;;;;;22.40;15.50;;;;;;;7.86;72.75;100771.85;115992;1205;137176;-58
2021/10/04 01:31:30;;;;;;;25.00;15.00;;;;;;;7.77;72.63;100772.65;116092;1205;22350;-58
2021/10/04 01:33:58;;;;;;;22.50;15.40;;;;;;;7.67;72.72;100779.94;115982;1205;137590;-59
2021/10/04 01:36:27;;;;;;;25.70;14.60;;;;;;;7.59;72.81;100781.24;116124;1205;22300;-59
2021/10/04 01:38:55;;;;;;;20.80;15.20;;;;;;;7.51;72.71;100780.77;115897;1206;139835;-59
2021/10/04 01:41:23;;;;;;;24.70;15.60;;;;;;;7.42;72.87;100780.80;116037;1205;22399;-59
2021/10/04 01:43:52;;;;;;;25.00;14.80;;;;;;;7.37;72.88;100781.34;116022;1205;22321;-59
2021/10/04 01:46:20;;;;;;;22.80;16.00;;;;;;;7.31;72.97;100785.42;113830;1207;137863;-58
2021/10/04 01:48:48;;;;;;;23.00;16.10;;;;;;;7.24;73.11;100782.52;116020;1205;22295;-58
2021/10/04 01:51:16;;;;;;;23.90;16.30;;;;;;;7.18;73.30;100791.20;115891;1205;137968;-58
2021/10/04 01:53:45;;;;;;;22.90;15.00;;;;;;;7.10;73.25;100783.98;116035;1207;22262;-59
2021/10/04 01:56:13;;;;;;;20.90;14.70;;;;;;;7.04;73.07;100786.90;116050;1206;22225;-59
2021/10/04 01:58:41;;;;;;;25.30;13.80;;;;;;;6.94;73.31;100784.77;115949;1205;137902;-58
2021/10/04 02:01:09;;;;;;;22.30;14.70;;;;;;;6.90;72.87;100789.86;116050;1205;22162;-58
2021/10/04 02:03:38;;;;;;;24.50;14.90;;;;;;;6.81;72.77;100791.02;115952;1205;138060;-59
2021/10/04 02:06:07;;;;;;;19.90;14.30;;;;;;;6.73;72.92;100792.67;115978;1205;22123;-59
2021/10/04 02:08:36;;;;;;;23.20;14.10;;;;;;;6.64;72.97;100795.12;116039;1199;23124;-59
2021/10/04 02:11:04;;;;;;;26.40;15.80;;;;;;;6.57;73.19;100800.41;115910;1205;137725;-59
2021/10/04 02:13:32;;;;;;;26.00;14.20;;;;;;;6.50;72.84;100801.79;116022;1198;23344;-59
2021/10/04 02:16:01;;;;;;;22.60;14.80;;;;;;;6.43;72.87;100801.55;114460;1205;137583;-58
2021/10/04 02:18:30;;;;;;;26.40;16.00;;;;;;;6.34;72.99;100802.83;111899;1205;23798;-58
2021/10/04 02:20:59;;;;;;;22.50;14.00;;;;;;;6.28;73.17;100801.39;116010;1205;137631;-58
2021/10/04 02:23:27;;;;;;;19.40;13.90;;;;;;;6.24;73.19;100798.80;116070;1205;23914;-58
2021/10/04 02:25:55;;;;;;;21.60;14.80;;;;;;;6.20;73.55;100799.70;116055;1205;22343;-58
2021/10/04 02:28:23;;;;;;;23.70;15.50;;;;;;;6.18;74.11;100801.52;115949;1205;138858;-58
2021/10/04 02:30:52;;;;;;;25.40;15.70;;;;;;;6.19;74.09;100804.66;116016;1204;22313;-58
2021/10/04 02:33:21;;;;;;;29.30;16.00;;;;;;;6.20;74.08;100805.00;115960;1205;137820;-58
2021/10/04 02:35:50;;;;;;;22.90;15.60;;;;;;;6.22;74.26;100807.36;116025;1205;22367;-58
2021/10/04 02:38:18;;;;;;;30.10;16.40;;;;;;;6.21;74.37;100808.65;116008;1198;22247;-58
2021/10/04 02:40:49;;;;;;;26.40;17.00;;;;;;;6.22;74.52;100808.33;115985;1205;138668;-58
2021/10/04 02:43:18;;;;;;;23.50;16.00;;;;;;;6.22;74.54;100809.32;116019;1205;23392;-58
2021/10/04 02:45:47;;;;;;;29.50;17.50;;;;;;;6.19;74.21;100808.58;116507;1201;137570;-58
2021/10/04 02:48:16;;;;;;;28.90;18.50;;;;;;;6.16;74.07;100809.96;116659;1201;22290;-59
2021/10/04 02:50:44;;;;;;;25.00;17.90;;;;;;;6.10;73.95;100809.58;116585;1187;22319;-59
2021/10/04 02:53:12;;;;;;;29.20;17.90;;;;;;;6.05;74.07;100807.92;116526;1201;137625;-59
2021/10/04 02:55:40;;;;;;;24.30;16.60;;;;;;;6.00;74.03;100809.73;116586;1195;23109;-59
2021/10/04 02:58:09;;;;;;;25.20;16.40;;;;;;;5.96;74.13;100809.39;116475;1200;137636;-58
2021/10/04 03:00:37;;;;;;;30.30;16.80;;;;;;;5.91;73.86;100810.19;116646;1201;22527;-58
2021/10/04 03:03:06;;;;;;;26.60;17.60;;;;;;;5.86;73.55;100806.89;116416;1202;137754;-58
2021/10/04 03:05:35;;;;;;;29.20;17.10;;;;;;;5.79;73.72;100811.72;116628;1202;22367;-58
2021/10/04 03:08:05;;;;;;;28.30;18.10;;;;;;;5.73;73.91;100812.01;116596;1201;22138;-58
2021/10/04 03:10:34;;;;;;;29.00;18.80;;;;;;;5.67;73.90;100816.81;116420;1202;138607;-58
2021/10/04 03:13:03;;;;;;;36.70;20.20;;;;;;;5.64;74.44;100819.64;116608;1202;22245;-58
2021/10/04 03:15:31;;;;;;;32.80;20.30;;;;;;;5.61;74.81;100822.55;116437;1202;138710;-59
2021/10/04 03:17:59;;;;;;;31.80;19.30;;;;;;;5.57;74.98;100820.34;116581;1201;23190;-59
2021/10/04 03:20:28;;;;;;;29.70;18.80;;;;;;;5.58;74.95;100824.73;116606;1201;22290;-58
2021/10/04 03:22:56;;;;;;;39.70;21.60;;;;;;;5.55;75.40;100820.58;116475;1201;138520;-59
2021/10/04 03:25:25;;;;;;;29.80;20.70;;;;;;;5.55;75.46;100826.39;116623;1201;22261;-59
2021/10/04 03:27:53;;;;;;;33.80;19.70;;;;;;;5.53;75.46;100820.60;116484;1201;138545;-58
2021/10/04 03:30:21;;;;;;;34.20;18.60;;;;;;;5.52;75.79;100818.63;116533;1202;22255;-58
2021/10/04 03:32:49;;;;;;;29.40;17.90;;;;;;;5.54;75.49;100818.19;116634;1195;22219;-58
2021/10/04 03:35:17;;;;;;;27.70;18.00;;;;;;;5.52;75.79;100819.30;116447;1202;137608;-58
2021/10/04 03:37:45;;;;;;;28.80;18.30;;;;;;;5.50;75.51;100823.34;116631;1202;22332;-59
2021/10/04 03:40:13;;;;;;;29.90;18.00;;;;;;;5.47;75.25;100824.54;116497;1195;138275;-58
2021/10/04 03:42:41;;;;;;;26.20;17.60;;;;;;;5.44;75.34;100826.91;116575;1202;22349;-58
2021/10/04 03:45:10;;;;;;;31.60;18.00;;;;;;;5.41;75.45;100826.54;116455;1202;138081;-57
2021/10/04 03:47:38;;;;;;;29.70;17.20;;;;;;;5.38;75.49;100831.41;116530;1202;22693;-58
2021/10/04 03:50:07;;;;;;;28.20;16.80;;;;;;;5.34;75.47;100832.04;116608;1202;23013;-57
2021/10/04 03:52:36;;;;;;;28.80;18.60;;;;;;;5.30;75.33;100829.44;116487;1201;137610;-59
2021/10/04 03:55:05;;;;;;;31.60;16.90;;;;;;;5.29;75.98;100831.96;116582;1202;22287;-59
2021/10/04 03:57:34;;;;;;;32.40;15.90;;;;;;;5.31;76.41;100833.98;116513;1201;138990;-58
2021/10/04 04:00:07;;;;;;;28.70;15.70;;;;;;;5.38;77.05;100828.64;116579;1202;22228;-59
2021/10/04 04:02:35;;;;;;;29.20;16.10;;;;;;;5.53;77.30;100836.31;116577;1201;23115;-58
2021/10/04 04:05:04;;;;;;;24.60;15.80;;;;;;;5.67;77.30;100836.63;116490;1201;138600;-59
2021/10/04 04:07:32;;;;;;;26.70;16.60;;;;;;;5.82;76.65;100836.58;116604;1201;22232;-58
2021/10/04 04:10:01;;;;;;;22.10;14.60;;;;;;;5.95;76.72;100838.42;116478;1202;139094;-59
2021/10/04 04:12:30;;;;;;;24.20;15.30;;;;;;;6.05;76.22;100839.98;116526;1201;22434;-58
2021/10/04 04:14:58;;;;;;;28.10;15.50;;;;;;;6.15;75.93;100844.09;116434;1201;138007;-58
2021/10/04 04:17:26;;;;;;;27.80;15.60;;;;;;;6.22;75.65;100848.39;112626;1202;27313;-58
2021/10/04 04:19:54;;;;;;;22.90;13.90;;;;;;;6.29;75.13;100850.90;112272;1202;24094;-58
2021/10/04 04:22:22;;;;;;;22.80;13.70;;;;;;;6.35;75.17;100851.30;116377;1201;137628;-58
2021/10/04 04:24:50;;;;;;;20.40;13.90;;;;;;;6.41;74.86;100859.38;116585;1201;22262;-58
2021/10/04 04:27:19;;;;;;;22.10;15.20;;;;;;;6.45;74.76;100862.38;116406;1202;139027;-59
2021/10/04 04:29:47;;;;;;;25.10;15.20;;;;;;;6.48;74.24;100865.48;116585;1202;22316;-59
2021/10/04 04:32:17;;;;;;;27.20;16.80;;;;;;;6.45;73.81;100867.29;116586;1201;22325;-59
2021/10/04 04:34:46;;;;;;;28.40;17.10;;;;;;;6.38;74.08;100863.61;116527;1201;137659;-59
2021/10/04 04:37:14;;;;;;;24.00;16.80;;;;;;;6.33;73.65;100863.08;116634;1201;22345;-59
2021/10/04 04:39:42;;;;;;;27.70;17.60;;;;;;;6.28;73.86;100861.17;116458;1201;137635;-60
2021/10/04 04:42:09;;;;;;;26.60;15.70;;;;;;;6.24;74.09;100861.54;116644;1202;22285;-60
2021/10/04 04:44:37;;;;;;;26.20;14.10;;;;;;;6.21;74.23;100856.95;116573;1196;22176;-60
2021/10/04 04:47:05;;;;;;;23.60;15.00;;;;;;;6.22;74.28;100856.40;116506;1201;137743;-61
2021/10/04 04:49:34;;;;;;;22.90;13.00;;;;;;;6.28;74.27;100851.13;116606;1201;22113;-59
2021/10/04 04:52:02;;;;;;;20.30;13.70;;;;;;;6.37;74.24;100856.02;116318;1202;137936;-59
2021/10/04 04:54:32;;;;;;;24.40;13.80;;;;;;;6.47;74.25;100854.27;116571;1201;22266;-60
2021/10/04 04:57:01;;;;;;;24.20;13.80;;;;;;;6.55;73.90;100853.30;116403;1196;138517;-60
2021/10/04 04:59:29;;;;;;;20.30;13.20;;;;;;;6.63;73.72;100857.73;116604;1201;22201;-59
2021/10/04 05:01:57;;;;;;;26.00;14.10;;;;;;;6.68;73.29;100861.66;116434;1201;22833;-60
2021/10/04 05:04:26;;;;;;;24.50;14.50;;;;;;;6.74;73.45;100862.59;116429;1187;138153;-60
2021/10/04 05:06:54;;;;;;;29.40;14.80;;;;;;;6.76;72.96;100862.27;116573;1201;22324;-60
2021/10/04 05:09:22;;;;;;;23.40;14.50;;;;;;;6.79;73.11;100862.14;116433;1201;138236;-60
2021/10/04 05:11:51;;;;;;;21.30;13.60;;;;;;;6.81;73.02;100860.81;116578;1201;22341;-60
2021/10/04 05:14:19;;;;;;;18.90;13.70;;;;;;;6.83;73.12;100860.83;116604;1190;22790;-61
2021/10/04 05:16:47;;;;;;;26.70;14.20;;;;;;;6.86;72.93;100862.64;116439;1202;138179;-60
2021/10/04 05:19:15;;;;;;;27.90;14.50;;;;;;;6.87;72.95;100862.11;116571;1201;22363;-61
2021/10/04 05:21:43;;;;;;;26.20;16.40;;;;;;;6.90;72.99;100867.59;116471;1201;137681;-60
2021/10/04 05:24:12;;;;;;;33.00;19.20;;;;;;;6.90;72.64;100868.51;116590;1202;22313;-61
2021/10/04 05:26:40;;;;;;;26.50;16.80;;;;;;;6.91;72.65;100871.22;116612;1201;22354;-58
2021/10/04 05:29:08;;;;;;;25.00;15.50;;;;;;;6.91;72.70;100869.69;116397;1202;138867;-59
2021/10/04 05:31:36;;;;;;;29.80;15.70;;;;;;;6.94;72.86;100872.55;116604;1202;22275;-59
2021/10/04 05:34:04;;;;;;;24.90;15.60;;;;;;;6.98;72.84;100877.83;116474;1202;138327;-59
2021/10/04 05:36:33;;;;;;;31.00;15.60;;;;;;;7.01;72.80;100881.02;116605;1202;22131;-59
2021/10/04 05:39:01;;;;;;;25.90;16.70;;;;;;;7.05;72.76;100881.63;116481;1201;138072;-61
2021/10/04 05:41:31;;;;;;;32.80;17.90;;;;;;;7.10;72.89;100885.05;116519;1202;23050;-59
2021/10/04 05:43:59;;;;;;;39.10;18.50;;;;;;;7.15;72.89;100886.21;116571;1201;22241;-61
2021/10/04 05:46:27;;;;;;;30.60;16.80;;;;;;;7.20;72.70;100886.44;116494;1188;141119;-60
2021/10/04 05:48:55;;;;;;;26.70;14.10;;;;;;;7.25;72.59;100888.02;116344;1202;22316;-61
2021/10/04 05:51:23;;;;;;;26.00;14.30;;;;;;;7.30;72.53;100886.35;116481;1197;138219;-60
2021/10/04 05:53:51;;;;;;;33.50;18.10;;;;;;;7.35;72.24;100887.70;116407;1202;22384;-59
2021/10/04 05:56:19;;;;;;;25.60;18.10;;;;;;;7.39;71.95;100884.58;116596;1201;22472;-60
2021/10/04 05:58:47;;;;;;;23.40;13.90;;;;;;;7.44;71.59;100886.31;116457;1201;138279;-60
2021/10/04 06:01:15;;;;;;;27.40;15.50;;;;;;;7.47;71.06;100885.45;116576;1201;22391;-60
2021/10/04 06:03:47;;;;;;;32.40;17.80;;;;;;;7.51;71.03;100890.55;116459;1201;138861;-60
2021/10/04 06:06:15;;;;;;;35.50;18.90;;;;;;;7.55;70.99;100889.55;116597;1201;23127;-61
2021/10/04 06:08:43;;;;;;;27.80;15.20;;;;;;;7.60;70.87;100892.08;116523;1202;23101;-62
2021/10/04 06:11:11;;;;;;;37.60;21.00;;;;;;;7.67;70.70;100891.62;116475;1202;137638;-61
2021/10/04 06:13:41;;;;;;;39.20;17.00;;;;;;;7.71;70.45;100887.25;116668;1201;25172;-61
2021/10/04 06:16:09;;;;;;;36.20;14.70;;;;;;;7.73;69.89;100887.01;116511;1201;139043;-60
2021/10/04 06:18:37;;;;;;;30.80;14.70;;;;;;;7.72;69.77;100888.88;116633;1201;22320;-61
2021/10/04 06:21:06;;;;;;;27.90;14.90;;;;;;;7.71;69.86;100886.99;116482;1202;139193;-61
2021/10/04 06:23:35;;;;;;;29.00;14.30;;;;;;;7.71;70.01;100887.96;116582;1201;22266;-61
2021/10/04 06:26:04;;;;;;;27.70;14.50;;;;;;;7.74;70.32;100886.42;116615;1201;22362;-60
2021/10/04 06:28:32;;;;;;;22.00;12.80;;;;;;;7.80;70.28;100889.64;116484;1193;138694;-60
2021/10/04 06:31:02;;;;;;;26.20;13.90;;;;;;;7.86;70.28;100890.23;116570;1201;23320;-61
2021/10/04 06:33:32;;;;;;;23.80;13.50;;;;;;;7.95;70.22;100891.38;116490;1201;139130;-62
2021/10/04 06:36:00;;;;;;;21.70;12.20;;;;;;;8.04;70.23;100890.63;116578;1201;22302;-60
2021/10/04 06:38:29;;;;;;;31.20;13.40;;;;;;;8.15;70.22;100890.30;116651;1201;22378;-59
2021/10/04 06:40:57;;;;;;;27.90;13.50;;;;;;;8.25;69.88;100887.84;116521;1201;138038;-59
2021/10/04 06:43:25;;;;;;;25.50;13.00;;;;;;;8.34;69.40;100887.31;116647;1201;22400;-59
2021/10/04 06:45:54;;;;;;;23.10;13.50;;;;;;;8.44;69.03;100888.52;116552;1201;137971;-60
2021/10/04 06:48:22;;;;;;;23.20;14.90;;;;;;;8.52;68.75;100891.07;116606;1202;22239;-59
2021/10/04 06:50:51;;;;;;;25.30;13.60;;;;;;;8.59;68.47;100892.44;116575;1201;22350;-59
2021/10/04 06:53:19;;;;;;;28.30;14.40;;;;;;;8.67;68.16;100894.50;116473;1201;137998;-61
2021/10/04 06:55:47;;;;;;;24.60;12.90;;;;;;;8.76;68.12;100891.10;116595;1201;23504;-60
2021/10/04 06:58:15;;;;;;;28.30;13.50;;;;;;;8.87;68.05;100892.46;116542;1201;138063;-69
2021/10/04 07:00:43;;;;;;;32.10;13.80;;;;;;;8.99;67.85;100898.02;116558;1201;22253;-60
2021/10/04 07:03:12;;;;;;;23.80;12.70;;;;;;;9.11;67.23;100897.10;116505;1201;139054;-61
2021/10/04 07:05:42;;;;;;;23.50;13.90;;;;;;;9.19;66.74;100893.45;116605;1202;23052;-60
2021/10/04 07:08:10;;;;;;;26.20;13.70;;;;;;;9.25;66.38;100895.88;116539;1202;22322;-61
2021/10/04 07:10:38;;;;;;;34.60;14.10;;;;;;;9.31;66.67;100898.78;116404;1202;138296;-60
2021/10/04 07:13:06;;;;;;;26.60;13.80;;;;;;;9.40;66.52;100897.48;116651;1187;22304;-61
2021/10/04 07:15:35;;;;;;;31.70;15.10;;;;;;;9.52;66.26;100899.88;116508;1201;139795;-61
2021/10/04 07:18:03;;;;;;;28.40;14.40;;;;;;;9.65;66.43;100898.05;116630;1202;22934;-61
2021/10/04 07:20:30;;;;;;;24.90;13.50;;;;;;;9.78;65.86;100896.35;116611;1201;22306;-61
2021/10/04 07:22:59;;;;;;;29.80;15.20;;;;;;;9.91;65.33;100894.77;116538;1201;137984;-61
2021/10/04 07:25:28;;;;;;;31.60;15.20;;;;;;;10.04;65.16;100893.48;116639;1201;22296;-62
2021/10/04 07:27:56;;;;;;;27.30;13.10;;;;;;;10.20;65.21;100894.64;116527;1201;138679;-62
2021/10/04 07:30:24;;;;;;;25.10;14.30;;;;;;;10.36;64.88;100894.05;116654;1201;22239;-63
2021/10/04 07:32:52;;;;;;;28.00;14.20;;;;;;;10.48;64.20;100892.02;116624;1201;22298;-61
2021/10/04 07:35:21;;;;;;;30.80;12.90;;;;;;;10.61;64.25;100895.84;116423;1201;138203;-62
2021/10/04 07:37:49;;;;;;;33.00;13.40;;;;;;;10.71;64.15;100896.44;116687;1201;22293;-62
2021/10/04 07:40:17;;;;;;;23.20;13.30;;;;;;;10.81;63.39;100893.41;116505;1201;138364;-62
2021/10/04 07:42:45;;;;;;;28.60;12.20;;;;;;;10.88;62.92;100892.48;116646;1201;22315;-62
2021/10/04 07:45:13;;;;;;;24.70;11.80;;;;;;;10.98;62.47;100895.52;116509;1201;139432;-61
2021/10/04 07:47:42;;;;;;;23.80;10.90;;;;;;;11.12;60.97;100897.71;116668;1201;22394;-61
2021/10/04 07:50:11;;;;;;;18.10;8.40;;;;;;;11.24;59.55;100895.64;116708;1201;22964;-62
2021/10/04 07:52:38;;;;;;;21.20;9.80;;;;;;;11.36;58.20;100902.42;116533;1201;138910;-62
2021/10/04 07:55:07;;;;;;;19.80;9.20;;;;;;;11.45;57.64;100905.19;116658;1201;22393;-61
2021/10/04 07:57:36;;;;;;;20.50;10.00;;;;;;;11.55;58.19;100902.66;116520;1201;137914;-62
2021/10/04 08:00:06;;;;;;;15.10;9.00;;;;;;;11.63;58.35;100903.95;116671;1186;22200;-62
2021/10/04 08:02:39;;;;;;;15.30;8.30;;;;;;;11.72;57.45;100901.54;116681;1201;23064;-62
2021/10/04 08:05:07;;;;;;;12.90;8.00;;;;;;;11.80;55.51;100898.64;116530;1200;137329;-62
2021/10/04 08:07:36;;;;;;;17.20;9.80;;;;;;;11.88;55.62;100894.54;116705;1201;22326;-61
2021/10/04 08:10:06;;;;;;;11.50;6.90;;;;;;;11.92;54.95;100886.42;116556;1200;137925;-59
2021/10/04 08:12:34;;;;;;;18.40;7.60;;;;;;;12.01;55.25;100891.55;116608;1201;22142;-61
2021/10/04 08:15:04;;;;;;;16.00;8.20;;;;;;;12.11;54.90;100886.45;116527;1201;137945;-60
2021/10/04 08:17:32;;;;;;;7.40;5.60;;;;;;;12.21;55.06;100886.50;116643;1196;23313;-60
2021/10/04 08:20:01;;;;;;;11.00;6.00;;;;;;;12.30;53.55;100882.51;116686;1201;22314;-60
2021/10/04 08:22:32;;;;;;;12.60;7.20;;;;;;;12.38;53.52;100885.13;116495;1201;138333;-59
2021/10/04 08:25:00;;;;;;;23.20;12.90;;;;;;;12.46;53.13;100881.28;116583;1200;22397;-62
2021/10/04 08:27:28;;;;;;;22.10;10.30;;;;;;;12.52;53.70;100882.98;112664;1201;138858;-60
2021/10/04 08:29:56;;;;;;;15.80;6.70;;;;;;;12.59;54.28;100884.56;112513;1201;27171;-59
2021/10/04 08:32:24;;;;;;;12.50;7.00;;;;;;;12.67;53.46;100886.12;112553;1201;24076;-60
2021/10/04 08:34:52;;;;;;;18.90;6.90;;;;;;;12.73;52.12;100883.50;116521;1201;137409;-61
2021/10/04 08:37:24;;;;;;;15.80;6.20;;;;;;;12.81;52.45;100889.56;116620;1200;22305;-61
2021/10/04 08:39:52;;;;;;;16.80;6.60;;;;;;;12.87;51.84;100887.96;116539;1201;138236;-61
2021/10/04 08:42:20;;;;;;;12.30;6.80;;;;;;;12.90;51.08;100892.48;116681;1201;22271;-61
2021/10/04 08:44:48;;;;;;;15.50;6.80;;;;;;;12.94;50.80;100893.90;116476;1201;22234;-61
2021/10/04 08:47:16;;;;;;;14.60;6.00;;;;;;;12.98;51.07;100895.41;116579;1201;137963;-60
2021/10/04 08:49:44;;;;;;;10.20;6.90;;;;;;;13.04;50.77;100893.52;116541;1201;23146;-60
2021/10/04 08:52:12;;;;;;;13.80;7.90;;;;;;;13.09;50.99;100891.70;116468;1201;138142;-60
2021/10/04 08:54:44;;;;;;;13.90;8.00;;;;;;;13.18;50.93;100893.66;116728;1201;22296;-61
2021/10/04 08:57:12;;;;;;;16.80;7.70;;;;;;;13.24;49.61;100890.90;116531;1201;138056;-60
2021/10/04 08:59:40;;;;;;;11.50;6.20;;;;;;;13.28;48.67;100897.83;116609;1201;22348;-60
2021/10/04 09:02:28;;;;;;;11.00;6.00;;;;;;;13.30;47.65;100896.60;116664;1201;24646;-60
2021/10/04 09:05:26;;;;;;;7.20;4.80;;;;;;;13.34;47.93;100894.59;116453;1201;138918;-60
2021/10/04 09:08:07;;;;;;;9.20;5.80;;;;;;;13.35;47.79;100892.00;116661;1201;23189;-60
2021/10/04 09:10:38;;;;;;;11.60;6.00;;;;;;;13.39;48.57;100891.21;116559;1201;138760;-61
2021/10/04 09:13:13;;;;;;;18.40;5.10;;;;;;;13.47;49.17;100893.94;116641;1201;22313;-62
2021/10/04 09:15:42;;;;;;;7.80;4.20;;;;;;;13.56;48.57;100890.70;116551;1200;138538;-61
2021/10/04 09:18:21;;;;;;;8.00;4.90;;;;;;;13.64;48.47;100891.70;116662;1201;22401;-59
2021/10/04 09:21:01;;;;;;;9.00;5.20;;;;;;;13.70;46.88;100889.08;116634;1200;22374;-59
2021/10/04 09:23:32;;;;;;;6.40;4.50;;;;;;;13.75;46.73;100886.31;116550;1201;137307;-59
2021/10/04 09:26:03;;;;;;;9.80;5.10;;;;;;;13.78;46.53;100884.61;116688;1201;22243;-60
2021/10/04 09:28:39;;;;;;;10.70;4.50;;;;;;;13.77;46.88;100877.05;116530;1201;136917;-60
2021/10/04 09:31:17;;;;;;;10.30;5.40;;;;;;;13.78;47.36;100878.38;116703;1201;22290;-60
2021/10/04 09:34:01;;;;;;;11.10;4.10;;;;;;;13.82;47.54;100878.13;116523;1201;137786;-60
2021/10/04 09:36:52;;;;;;;10.30;4.60;;;;;;;13.86;47.14;100875.06;116647;1201;22265;-60
2021/10/04 09:39:30;;;;;;;;;;;;;;;13.90;47.35;100872.61;116599;1201;137536;-61
2021/10/04 09:42:09;;;;;;;16.20;4.70;;;;;;;13.96;47.21;100874.26;116622;1201;22243;-60
2021/10/04 09:44:41;;;;;;;14.80;4.60;;;;;;;14.01;46.94;100867.38;116660;1201;23690;-60
2021/10/04 09:47:13;;;;;;;9.10;4.80;;;;;;;14.07;46.78;100864.37;116580;1201;137714;-61
2021/10/04 09:50:07;;;;;;;7.80;4.00;;;;;;;14.11;45.91;100859.02;116656;1201;22931;-61
2021/10/04 09:52:37;;;;;;;4.60;4.10;;;;;;;14.14;44.58;100861.90;116525;1200;137389;-60
2021/10/04 09:55:43;;;;;;;10.10;4.70;;;;;;;14.14;43.99;100854.89;116681;1201;22297;-60
2021/10/04 09:58:15;;;;;;;7.90;4.20;;;;;;;14.14;44.08;100851.94;116537;1201;137557;-60
2021/10/04 10:00:53;;;;;;;12.00;4.20;;;;;;;14.17;44.28;100856.14;116625;1201;22279;-61
2021/10/04 10:03:23;;;;;;;7.70;3.90;;;;;;;14.21;45.14;100855.39;116562;1201;137607;-60
2021/10/04 10:05:55;;;;;;;6.80;4.50;;;;;;;14.27;45.21;100852.20;116651;1201;22327;-61
2021/10/04 10:08:25;;;;;;;8.30;4.30;;;;;;;14.34;45.20;100846.67;116593;1201;22161;-60
2021/10/04 10:10:56;;;;;;;5.20;4.10;;;;;;;14.41;44.51;100842.14;116593;1201;137381;-60
2021/10/04 10:13:25;;;;;;;7.60;3.80;;;;;;;14.45;44.18;100845.94;116644;1201;22300;-60
2021/10/04 10:16:13;;;;;;;4.70;3.40;;;;;;;14.51;44.00;100836.91;116514;1201;137377;-60
2021/10/04 10:18:49;;;;;;;;;;;;;;;14.57;42.96;100836.45;116654;1201;22335;-60
2021/10/04 10:21:19;;;;;;;9.90;4.20;;;;;;;14.58;42.97;100830.04;116550;1201;124231;-60
2021/10/04 10:23:54;;;;;;;6.10;4.30;;;;;;;14.58;43.08;100829.37;116648;1201;22247;-60
2021/10/04 10:26:26;;;;;;;8.20;3.90;;;;;;;14.59;42.49;100832.09;116654;1201;22301;-60
2021/10/04 10:29:17;;;;;;;7.10;4.30;;;;;;;14.58;43.13;100832.99;116547;1201;138262;-59
2021/10/04 10:31:50;;;;;;;6.30;4.10;;;;;;;14.57;43.80;100830.53;116659;1201;23590;-60
2021/10/04 10:34:33;;;;;;;7.80;4.20;;;;;;;14.60;43.74;100826.06;116555;1201;137225;-59
2021/10/04 10:37:07;;;;;;;5.10;4.20;;;;;;;14.62;43.76;100826.77;116614;1201;22337;-60
2021/10/04 10:39:46;;;;;;;5.80;3.90;;;;;;;14.67;44.20;100827.48;116586;1200;138013;-60
2021/10/04 10:42:21;;;;;;;7.30;4.00;;;;;;;14.73;43.67;100821.32;116681;1201;22258;-60
2021/10/04 10:44:55;;;;;;;4.60;3.70;;;;;;;14.77;44.18;100832.63;116579;1202;22349;-60
2021/10/04 10:47:38;;;;;;;11.50;4.80;;;;;;;14.81;44.11;100824.23;116268;1201;137253;-60
2021/10/04 10:50:17;;;;;;;9.10;4.10;;;;;;;14.84;44.20;100818.52;116586;1200;22218;-59
2021/10/04 10:52:54;;;;;;;16.30;4.40;;;;;;;14.88;44.64;100823.88;116518;1201;136932;-60
2021/10/04 10:55:33;;;;;;;9.40;3.50;;;;;;;14.92;44.47;100822.73;116567;1201;22333;-59
2021/10/04 10:58:10;;;;;;;5.20;3.80;;;;;;;14.96;44.00;100821.95;116408;1201;137437;-60
2021/10/04 11:01:15;;;;;;;7.10;4.00;;;;;;;15.00;44.07;100817.94;116645;1200;23280;-60
2021/10/04 11:03:54;;;;;;;7.90;3.70;;;;;;;15.02;42.87;100816.20;116600;1200;137691;-60
2021/10/04 11:06:39;;;;;;;13.20;4.40;;;;;;;15.01;43.06;100816.31;116607;1201;22260;-60
2021/10/04 11:09:07;;;;;;;12.00;3.90;;;;;;;14.99;43.74;100811.25;116582;1201;139081;-60
2021/10/04 11:11:40;;;;;;;5.70;4.00;;;;;;;14.96;43.06;100810.82;116603;1201;22787;-60
2021/10/04 11:14:13;;;;;;;7.20;4.00;;;;;;;14.91;43.17;100805.31;116626;1201;22796;-60
2021/10/04 11:16:47;;;;;;;6.00;3.50;;;;;;;14.86;43.41;100805.46;116517;1201;137501;-60
2021/10/04 11:19:20;;;;;;;7.00;3.90;;;;;;;14.82;43.70;100804.00;116694;1201;22352;-60
2021/10/04 11:21:51;;;;;;;6.40;3.80;;;;;;;14.79;43.03;100802.91;116525;1201;137368;-60